sensor_id;sensor_type;location;lat;lon;timestamp;P1;durP1;ratioP1;P2;durP2;ratioP2
5357;SDS011;2702;51.014;7.170;2022-10-22T00:00:46;5.43;;;4.93;;
5357;SDS011;2702;51.014;7.170;2022-10-22T00:03:12;6.00;;;5.03;;
5357;SDS011;2702;51.014;7.170;2022-10-22T00:05:38;4.93;;;4.43;;
5357;SDS011;2702;51.014;7.170;2022-10-22T00:08:04;6.80;;;5.73;;
5357;SDS011;2702;51.014;7.170;2022-10-22T00:10:30;8.40;;;5.50;;
5357;SDS011;2702;51.014;7.170;2022-10-22T00:12:56;5.87;;;5.00;;
5357;SDS011;2702;51.014;7.170;2022-10-22T00:15:22;7.07;;;5.10;;
5357;SDS011;2702;51.014;7.170;2022-10-22T00:17:47;7.00;;;5.77;;
5357;SDS011;2702;51.014;7.170;2022-10-22T00:20:14;5.73;;;4.37;;
5357;SDS011;2702;51.014;7.170;2022-10-22T00:22:40;5.23;;;4.83;;
5357;SDS011;2702;51.014;7.170;2022-10-22T00:25:06;7.90;;;5.27;;
5357;SDS011;2702;51.014;7.170;2022-10-22T00:27:32;7.67;;;5.60;;
5357;SDS011;2702;51.014;7.170;2022-10-22T00:29:58;9.80;;;5.37;;
5357;SDS011;2702;51.014;7.170;2022-10-22T00:32:23;11.17;;;5.57;;
5357;SDS011;2702;51.014;7.170;2022-10-22T00:34:49;5.70;;;5.20;;
5357;SDS011;2702;51.014;7.170;2022-10-22T00:37:15;7.03;;;5.13;;
5357;SDS011;2702;51.014;7.170;2022-10-22T00:39:41;7.10;;;5.47;;
5357;SDS011;2702;51.014;7.170;2022-10-22T00:42:09;7.33;;;5.63;;
5357;SDS011;2702;51.014;7.170;2022-10-22T00:44:59;6.00;;;5.37;;
5357;SDS011;2702;51.014;7.170;2022-10-22T00:47:26;5.67;;;4.90;;
5357;SDS011;2702;51.014;7.170;2022-10-22T00:49:57;6.13;;;5.53;;
5357;SDS011;2702;51.014;7.170;2022-10-22T00:52:24;9.10;;;6.30;;
5357;SDS011;2702;51.014;7.170;2022-10-22T00:54:50;6.97;;;5.40;;
5357;SDS011;2702;51.014;7.170;2022-10-22T00:57:17;5.80;;;5.30;;
5357;SDS011;2702;51.014;7.170;2022-10-22T00:59:45;7.93;;;5.43;;
5357;SDS011;2702;51.014;7.170;2022-10-22T01:02:12;5.83;;;4.97;;
5357;SDS011;2702;51.014;7.170;2022-10-22T01:04:39;7.57;;;5.63;;
5357;SDS011;2702;51.014;7.170;2022-10-22T01:07:05;7.07;;;5.50;;
5357;SDS011;2702;51.014;7.170;2022-10-22T01:17:54;7.07;;;5.40;;
5357;SDS011;2702;51.014;7.170;2022-10-22T01:25:57;7.17;;;5.53;;
5357;SDS011;2702;51.014;7.170;2022-10-22T01:28:48;11.30;;;5.20;;
5357;SDS011;2702;51.014;7.170;2022-10-22T01:31:16;9.70;;;6.03;;
5357;SDS011;2702;51.014;7.170;2022-10-22T01:33:44;9.07;;;6.03;;
5357;SDS011;2702;51.014;7.170;2022-10-22T01:36:12;8.77;;;5.73;;
5357;SDS011;2702;51.014;7.170;2022-10-22T01:38:39;5.97;;;5.37;;
5357;SDS011;2702;51.014;7.170;2022-10-22T01:41:06;9.50;;;5.67;;
5357;SDS011;2702;51.014;7.170;2022-10-22T01:43:32;5.90;;;5.40;;
5357;SDS011;2702;51.014;7.170;2022-10-22T01:45:59;11.70;;;6.00;;
5357;SDS011;2702;51.014;7.170;2022-10-22T01:51:29;8.27;;;6.43;;
5357;SDS011;2702;51.014;7.170;2022-10-22T02:05:16;8.20;;;5.73;;
5357;SDS011;2702;51.014;7.170;2022-10-22T02:07:51;5.83;;;5.33;;
5357;SDS011;2702;51.014;7.170;2022-10-22T02:10:22;6.53;;;5.83;;
5357;SDS011;2702;51.014;7.170;2022-10-22T02:12:50;11.07;;;5.97;;
5357;SDS011;2702;51.014;7.170;2022-10-22T02:15:19;7.37;;;6.10;;
5357;SDS011;2702;51.014;7.170;2022-10-22T02:17:47;9.40;;;6.10;;
5357;SDS011;2702;51.014;7.170;2022-10-22T02:20:16;8.63;;;6.50;;
5357;SDS011;2702;51.014;7.170;2022-10-22T02:22:45;7.20;;;5.90;;
5357;SDS011;2702;51.014;7.170;2022-10-22T02:25:12;10.23;;;6.70;;
5357;SDS011;2702;51.014;7.170;2022-10-22T02:27:45;8.30;;;5.90;;
5357;SDS011;2702;51.014;7.170;2022-10-22T02:30:19;7.13;;;6.00;;
5357;SDS011;2702;51.014;7.170;2022-10-22T02:32:49;8.50;;;6.43;;
5357;SDS011;2702;51.014;7.170;2022-10-22T02:35:20;7.83;;;7.00;;
5357;SDS011;2702;51.014;7.170;2022-10-22T02:37:49;6.80;;;6.10;;
5357;SDS011;2702;51.014;7.170;2022-10-22T02:40:17;7.30;;;6.10;;
5357;SDS011;2702;51.014;7.170;2022-10-22T02:42:44;7.53;;;6.57;;
5357;SDS011;2702;51.014;7.170;2022-10-22T02:45:12;7.53;;;6.70;;
5357;SDS011;2702;51.014;7.170;2022-10-22T02:47:38;8.50;;;6.50;;
5357;SDS011;2702;51.014;7.170;2022-10-22T02:50:04;7.80;;;6.40;;
5357;SDS011;2702;51.014;7.170;2022-10-22T02:52:31;7.07;;;6.00;;
5357;SDS011;2702;51.014;7.170;2022-10-22T02:54:57;7.23;;;6.40;;
5357;SDS011;2702;51.014;7.170;2022-10-22T02:57:23;9.17;;;7.27;;
5357;SDS011;2702;51.014;7.170;2022-10-22T02:59:48;7.97;;;7.00;;
5357;SDS011;2702;51.014;7.170;2022-10-22T03:02:14;6.70;;;6.10;;
5357;SDS011;2702;51.014;7.170;2022-10-22T03:04:40;7.80;;;6.60;;
5357;SDS011;2702;51.014;7.170;2022-10-22T03:07:06;6.83;;;5.97;;
5357;SDS011;2702;51.014;7.170;2022-10-22T03:09:32;6.83;;;6.20;;
5357;SDS011;2702;51.014;7.170;2022-10-22T03:11:58;9.27;;;6.53;;
5357;SDS011;2702;51.014;7.170;2022-10-22T03:14:24;7.47;;;6.60;;
5357;SDS011;2702;51.014;7.170;2022-10-22T03:16:49;7.43;;;6.70;;
5357;SDS011;2702;51.014;7.170;2022-10-22T03:19:15;7.10;;;6.40;;
5357;SDS011;2702;51.014;7.170;2022-10-22T03:21:54;10.30;;;7.43;;
5357;SDS011;2702;51.014;7.170;2022-10-22T03:24:24;9.10;;;7.07;;
5357;SDS011;2702;51.014;7.170;2022-10-22T03:26:58;11.07;;;7.40;;
5357;SDS011;2702;51.014;7.170;2022-10-22T03:29:24;7.60;;;6.83;;
5357;SDS011;2702;51.014;7.170;2022-10-22T03:31:52;7.67;;;6.87;;
5357;SDS011;2702;51.014;7.170;2022-10-22T03:34:18;9.17;;;6.60;;
5357;SDS011;2702;51.014;7.170;2022-10-22T03:36:44;8.40;;;7.40;;
5357;SDS011;2702;51.014;7.170;2022-10-22T03:39:12;7.67;;;6.93;;
5357;SDS011;2702;51.014;7.170;2022-10-22T03:41:40;7.03;;;6.33;;
5357;SDS011;2702;51.014;7.170;2022-10-22T03:44:06;7.20;;;6.50;;
5357;SDS011;2702;51.014;7.170;2022-10-22T03:46:32;8.60;;;7.30;;
5357;SDS011;2702;51.014;7.170;2022-10-22T03:48:58;9.07;;;7.57;;
5357;SDS011;2702;51.014;7.170;2022-10-22T03:51:27;7.93;;;7.13;;
5357;SDS011;2702;51.014;7.170;2022-10-22T03:53:53;8.73;;;6.60;;
5357;SDS011;2702;51.014;7.170;2022-10-22T03:56:19;8.40;;;7.20;;
5357;SDS011;2702;51.014;7.170;2022-10-22T03:58:46;12.10;;;7.80;;
5357;SDS011;2702;51.014;7.170;2022-10-22T04:01:12;10.00;;;7.97;;
5357;SDS011;2702;51.014;7.170;2022-10-22T04:03:38;7.20;;;6.50;;
5357;SDS011;2702;51.014;7.170;2022-10-22T04:06:08;9.93;;;7.40;;
5357;SDS011;2702;51.014;7.170;2022-10-22T04:08:37;7.77;;;6.50;;
5357;SDS011;2702;51.014;7.170;2022-10-22T04:11:04;8.40;;;6.83;;
5357;SDS011;2702;51.014;7.170;2022-10-22T04:13:30;7.40;;;6.80;;
5357;SDS011;2702;51.014;7.170;2022-10-22T04:16:05;7.63;;;6.80;;
5357;SDS011;2702;51.014;7.170;2022-10-22T04:18:39;11.10;;;7.93;;
5357;SDS011;2702;51.014;7.170;2022-10-22T04:21:06;7.13;;;6.43;;
5357;SDS011;2702;51.014;7.170;2022-10-22T04:23:34;7.83;;;7.13;;
5357;SDS011;2702;51.014;7.170;2022-10-22T04:26:00;17.43;;;7.40;;
5357;SDS011;2702;51.014;7.170;2022-10-22T04:28:27;12.27;;;7.17;;
5357;SDS011;2702;51.014;7.170;2022-10-22T04:30:53;6.93;;;6.23;;
5357;SDS011;2702;51.014;7.170;2022-10-22T04:33:19;8.93;;;7.60;;
5357;SDS011;2702;51.014;7.170;2022-10-22T04:35:45;7.57;;;6.87;;
5357;SDS011;2702;51.014;7.170;2022-10-22T04:38:12;7.63;;;6.93;;
5357;SDS011;2702;51.014;7.170;2022-10-22T04:40:38;9.77;;;7.73;;
5357;SDS011;2702;51.014;7.170;2022-10-22T04:43:03;7.63;;;6.97;;
5357;SDS011;2702;51.014;7.170;2022-10-22T04:45:29;8.63;;;7.80;;
5357;SDS011;2702;51.014;7.170;2022-10-22T04:47:59;8.60;;;7.70;;
5357;SDS011;2702;51.014;7.170;2022-10-22T04:50:25;8.37;;;7.67;;
5357;SDS011;2702;51.014;7.170;2022-10-22T04:52:51;8.93;;;7.87;;
5357;SDS011;2702;51.014;7.170;2022-10-22T04:55:17;10.17;;;7.73;;
5357;SDS011;2702;51.014;7.170;2022-10-22T04:57:43;9.40;;;7.47;;
5357;SDS011;2702;51.014;7.170;2022-10-22T05:00:09;9.10;;;8.20;;
5357;SDS011;2702;51.014;7.170;2022-10-22T05:02:35;8.67;;;7.77;;
5357;SDS011;2702;51.014;7.170;2022-10-22T05:05:01;10.93;;;8.27;;
5357;SDS011;2702;51.014;7.170;2022-10-22T05:07:28;9.00;;;7.80;;
5357;SDS011;2702;51.014;7.170;2022-10-22T05:09:54;8.67;;;7.27;;
5357;SDS011;2702;51.014;7.170;2022-10-22T05:12:19;10.70;;;8.10;;
5357;SDS011;2702;51.014;7.170;2022-10-22T05:14:45;12.43;;;8.37;;
5357;SDS011;2702;51.014;7.170;2022-10-22T05:17:11;8.83;;;8.03;;
5357;SDS011;2702;51.014;7.170;2022-10-22T05:19:37;9.30;;;7.80;;
5357;SDS011;2702;51.014;7.170;2022-10-22T05:22:03;10.03;;;8.23;;
5357;SDS011;2702;51.014;7.170;2022-10-22T05:24:30;10.80;;;8.80;;
5357;SDS011;2702;51.014;7.170;2022-10-22T05:26:58;8.73;;;7.93;;
5357;SDS011;2702;51.014;7.170;2022-10-22T05:29:25;8.77;;;7.83;;
5357;SDS011;2702;51.014;7.170;2022-10-22T05:31:51;12.00;;;7.80;;
5357;SDS011;2702;51.014;7.170;2022-10-22T05:34:17;9.37;;;8.47;;
5357;SDS011;2702;51.014;7.170;2022-10-22T05:36:43;9.00;;;8.10;;
5357;SDS011;2702;51.014;7.170;2022-10-22T05:39:09;12.10;;;8.13;;
5357;SDS011;2702;51.014;7.170;2022-10-22T05:41:35;9.93;;;8.80;;
5357;SDS011;2702;51.014;7.170;2022-10-22T05:44:02;11.50;;;8.67;;
5357;SDS011;2702;51.014;7.170;2022-10-22T05:46:30;10.87;;;8.67;;
5357;SDS011;2702;51.014;7.170;2022-10-22T05:49:00;9.60;;;7.90;;
5357;SDS011;2702;51.014;7.170;2022-10-22T05:51:28;9.30;;;8.40;;
5357;SDS011;2702;51.014;7.170;2022-10-22T05:53:58;10.43;;;8.33;;
5357;SDS011;2702;51.014;7.170;2022-10-22T05:56:26;12.60;;;8.00;;
5357;SDS011;2702;51.014;7.170;2022-10-22T05:58:53;8.93;;;8.00;;
5357;SDS011;2702;51.014;7.170;2022-10-22T06:01:23;11.60;;;8.07;;
5357;SDS011;2702;51.014;7.170;2022-10-22T06:03:55;11.73;;;8.07;;
5357;SDS011;2702;51.014;7.170;2022-10-22T06:09:16;12.07;;;8.37;;
5357;SDS011;2702;51.014;7.170;2022-10-22T06:11:51;10.43;;;9.43;;
5357;SDS011;2702;51.014;7.170;2022-10-22T06:14:18;9.93;;;7.80;;
5357;SDS011;2702;51.014;7.170;2022-10-22T06:16:44;11.97;;;9.37;;
5357;SDS011;2702;51.014;7.170;2022-10-22T06:19:11;9.53;;;8.60;;
5357;SDS011;2702;51.014;7.170;2022-10-22T06:21:38;9.60;;;8.60;;
5357;SDS011;2702;51.014;7.170;2022-10-22T06:24:04;9.63;;;8.63;;
5357;SDS011;2702;51.014;7.170;2022-10-22T06:26:30;11.53;;;9.03;;
5357;SDS011;2702;51.014;7.170;2022-10-22T06:28:56;11.60;;;9.00;;
5357;SDS011;2702;51.014;7.170;2022-10-22T06:31:23;11.63;;;8.80;;
5357;SDS011;2702;51.014;7.170;2022-10-22T06:33:50;10.23;;;9.20;;
5357;SDS011;2702;51.014;7.170;2022-10-22T06:36:18;15.70;;;9.27;;
5357;SDS011;2702;51.014;7.170;2022-10-22T06:38:45;10.63;;;8.93;;
5357;SDS011;2702;51.014;7.170;2022-10-22T06:41:12;11.63;;;8.20;;
5357;SDS011;2702;51.014;7.170;2022-10-22T06:43:43;9.90;;;8.90;;
5357;SDS011;2702;51.014;7.170;2022-10-22T06:46:11;8.83;;;7.40;;
5357;SDS011;2702;51.014;7.170;2022-10-22T06:48:39;7.67;;;6.87;;
5357;SDS011;2702;51.014;7.170;2022-10-22T06:51:06;9.73;;;7.20;;
5357;SDS011;2702;51.014;7.170;2022-10-22T06:53:34;7.83;;;7.00;;
5357;SDS011;2702;51.014;7.170;2022-10-22T06:56:19;9.17;;;6.87;;
5357;SDS011;2702;51.014;7.170;2022-10-22T06:58:46;8.70;;;7.57;;
5357;SDS011;2702;51.014;7.170;2022-10-22T07:01:17;11.93;;;7.20;;
5357;SDS011;2702;51.014;7.170;2022-10-22T07:03:45;7.87;;;7.07;;
5357;SDS011;2702;51.014;7.170;2022-10-22T07:06:12;10.20;;;7.97;;
5357;SDS011;2702;51.014;7.170;2022-10-22T07:08:39;8.50;;;6.63;;
5357;SDS011;2702;51.014;7.170;2022-10-22T07:11:09;8.37;;;7.07;;
5357;SDS011;2702;51.014;7.170;2022-10-22T07:13:41;10.03;;;7.07;;
5357;SDS011;2702;51.014;7.170;2022-10-22T07:16:08;6.13;;;5.53;;
5357;SDS011;2702;51.014;7.170;2022-10-22T07:18:35;7.97;;;6.20;;
5357;SDS011;2702;51.014;7.170;2022-10-22T07:21:02;8.50;;;6.77;;
5357;SDS011;2702;51.014;7.170;2022-10-22T07:23:29;7.83;;;5.87;;
5357;SDS011;2702;51.014;7.170;2022-10-22T07:25:55;9.57;;;5.93;;
5357;SDS011;2702;51.014;7.170;2022-10-22T07:28:21;7.00;;;6.40;;
5357;SDS011;2702;51.014;7.170;2022-10-22T07:30:47;5.93;;;5.33;;
5357;SDS011;2702;51.014;7.170;2022-10-22T07:33:13;5.80;;;4.97;;
5357;SDS011;2702;51.014;7.170;2022-10-22T07:35:39;7.10;;;5.50;;
5357;SDS011;2702;51.014;7.170;2022-10-22T07:38:06;7.00;;;5.67;;
5357;SDS011;2702;51.014;7.170;2022-10-22T07:40:33;6.53;;;4.70;;
5357;SDS011;2702;51.014;7.170;2022-10-22T07:43:00;7.57;;;4.83;;
5357;SDS011;2702;51.014;7.170;2022-10-22T07:45:27;6.23;;;4.73;;
5357;SDS011;2702;51.014;7.170;2022-10-22T07:47:53;5.30;;;4.37;;
5357;SDS011;2702;51.014;7.170;2022-10-22T07:50:19;5.17;;;3.90;;
5357;SDS011;2702;51.014;7.170;2022-10-22T07:52:45;8.17;;;4.40;;
5357;SDS011;2702;51.014;7.170;2022-10-22T07:55:11;5.77;;;3.70;;
5357;SDS011;2702;51.014;7.170;2022-10-22T07:57:38;5.33;;;3.90;;
5357;SDS011;2702;51.014;7.170;2022-10-22T08:00:05;5.40;;;3.70;;
5357;SDS011;2702;51.014;7.170;2022-10-22T08:02:32;8.13;;;3.43;;
5357;SDS011;2702;51.014;7.170;2022-10-22T08:04:58;5.60;;;3.80;;
5357;SDS011;2702;51.014;7.170;2022-10-22T08:07:24;3.97;;;3.63;;
5357;SDS011;2702;51.014;7.170;2022-10-22T08:09:50;8.43;;;3.77;;
5357;SDS011;2702;51.014;7.170;2022-10-22T08:12:16;7.33;;;3.40;;
5357;SDS011;2702;51.014;7.170;2022-10-22T08:14:42;5.70;;;2.97;;
5357;SDS011;2702;51.014;7.170;2022-10-22T08:17:08;5.27;;;2.93;;
5357;SDS011;2702;51.014;7.170;2022-10-22T08:19:34;10.10;;;3.30;;
5357;SDS011;2702;51.014;7.170;2022-10-22T08:22:00;5.83;;;3.37;;
5357;SDS011;2702;51.014;7.170;2022-10-22T08:24:26;4.33;;;2.83;;
5357;SDS011;2702;51.014;7.170;2022-10-22T08:26:53;3.40;;;2.87;;
5357;SDS011;2702;51.014;7.170;2022-10-22T08:29:20;5.07;;;3.10;;
5357;SDS011;2702;51.014;7.170;2022-10-22T08:31:47;4.93;;;3.07;;
5357;SDS011;2702;51.014;7.170;2022-10-22T08:34:14;4.60;;;2.73;;
5357;SDS011;2702;51.014;7.170;2022-10-22T08:36:40;5.50;;;3.20;;
5357;SDS011;2702;51.014;7.170;2022-10-22T08:39:07;4.77;;;2.70;;
5357;SDS011;2702;51.014;7.170;2022-10-22T08:41:35;9.77;;;3.13;;
5357;SDS011;2702;51.014;7.170;2022-10-22T08:49:56;6.00;;;3.07;;
5357;SDS011;2702;51.014;7.170;2022-10-22T08:52:24;6.27;;;2.80;;
5357;SDS011;2702;51.014;7.170;2022-10-22T08:54:54;4.73;;;2.93;;
5357;SDS011;2702;51.014;7.170;2022-10-22T09:05:55;8.33;;;3.87;;
5357;SDS011;2702;51.014;7.170;2022-10-22T09:08:24;5.80;;;3.40;;
5357;SDS011;2702;51.014;7.170;2022-10-22T09:10:52;6.47;;;3.63;;
5357;SDS011;2702;51.014;7.170;2022-10-22T09:13:43;7.30;;;3.87;;
5357;SDS011;2702;51.014;7.170;2022-10-22T09:16:14;4.43;;;2.63;;
5357;SDS011;2702;51.014;7.170;2022-10-22T09:27:12;7.57;;;3.40;;
5357;SDS011;2702;51.014;7.170;2022-10-22T09:29:43;2.97;;;2.77;;
5357;SDS011;2702;51.014;7.170;2022-10-22T09:32:11;5.73;;;3.37;;
5357;SDS011;2702;51.014;7.170;2022-10-22T09:34:37;5.07;;;2.97;;
5357;SDS011;2702;51.014;7.170;2022-10-22T09:37:07;7.83;;;2.73;;
5357;SDS011;2702;51.014;7.170;2022-10-22T09:39:39;7.67;;;3.10;;
5357;SDS011;2702;51.014;7.170;2022-10-22T09:42:08;2.97;;;2.50;;
5357;SDS011;2702;51.014;7.170;2022-10-22T09:44:36;4.80;;;2.30;;
5357;SDS011;2702;51.014;7.170;2022-10-22T09:47:06;6.57;;;2.67;;
5357;SDS011;2702;51.014;7.170;2022-10-22T09:50:03;6.87;;;2.70;;
5357;SDS011;2702;51.014;7.170;2022-10-22T09:52:44;4.50;;;2.40;;
5357;SDS011;2702;51.014;7.170;2022-10-22T09:55:13;8.53;;;2.83;;
5357;SDS011;2702;51.014;7.170;2022-10-22T09:57:42;4.40;;;2.10;;
5357;SDS011;2702;51.014;7.170;2022-10-22T10:00:17;5.63;;;2.53;;
5357;SDS011;2702;51.014;7.170;2022-10-22T10:02:44;3.20;;;2.73;;
5357;SDS011;2702;51.014;7.170;2022-10-22T10:05:17;7.23;;;2.70;;
5357;SDS011;2702;51.014;7.170;2022-10-22T10:07:48;9.00;;;2.70;;
5357;SDS011;2702;51.014;7.170;2022-10-22T10:10:48;6.30;;;2.63;;
5357;SDS011;2702;51.014;7.170;2022-10-22T10:13:14;3.83;;;2.23;;
5357;SDS011;2702;51.014;7.170;2022-10-22T10:15:58;4.30;;;2.30;;
5357;SDS011;2702;51.014;7.170;2022-10-22T10:21:28;7.73;;;2.70;;
5357;SDS011;2702;51.014;7.170;2022-10-22T10:29:25;6.07;;;3.03;;
5357;SDS011;2702;51.014;7.170;2022-10-22T10:37:46;4.07;;;2.07;;
5357;SDS011;2702;51.014;7.170;2022-10-22T10:40:31;5.47;;;2.57;;
5357;SDS011;2702;51.014;7.170;2022-10-22T10:43:14;6.73;;;2.13;;
5357;SDS011;2702;51.014;7.170;2022-10-22T10:49:00;5.30;;;1.97;;
5357;SDS011;2702;51.014;7.170;2022-10-22T10:54:20;3.70;;;1.97;;
5357;SDS011;2702;51.014;7.170;2022-10-22T10:57:05;6.67;;;2.10;;
5357;SDS011;2702;51.014;7.170;2022-10-22T11:07:30;3.60;;;2.30;;
5357;SDS011;2702;51.014;7.170;2022-10-22T11:10:38;4.60;;;1.90;;
5357;SDS011;2702;51.014;7.170;2022-10-22T11:13:07;2.27;;;1.70;;
5357;SDS011;2702;51.014;7.170;2022-10-22T11:16:09;4.47;;;1.70;;
5357;SDS011;2702;51.014;7.170;2022-10-22T11:18:53;2.70;;;1.70;;
5357;SDS011;2702;51.014;7.170;2022-10-22T11:26:32;6.40;;;2.10;;
5357;SDS011;2702;51.014;7.170;2022-10-22T11:29:34;4.60;;;1.70;;
5357;SDS011;2702;51.014;7.170;2022-10-22T11:32:03;3.63;;;1.90;;
5357;SDS011;2702;51.014;7.170;2022-10-22T11:34:45;4.57;;;1.67;;
5357;SDS011;2702;51.014;7.170;2022-10-22T11:37:24;3.60;;;1.60;;
5357;SDS011;2702;51.014;7.170;2022-10-22T11:39:57;5.83;;;2.03;;
5357;SDS011;2702;51.014;7.170;2022-10-22T11:45:00;4.43;;;1.67;;
5357;SDS011;2702;51.014;7.170;2022-10-22T11:50:58;3.23;;;1.60;;
5357;SDS011;2702;51.014;7.170;2022-10-22T11:55:57;2.60;;;1.43;;
5357;SDS011;2702;51.014;7.170;2022-10-22T11:58:31;3.87;;;1.13;;
5357;SDS011;2702;51.014;7.170;2022-10-22T12:08:44;7.77;;;7.07;;
5357;SDS011;2702;51.014;7.170;2022-10-22T12:14:21;2.70;;;1.40;;
5357;SDS011;2702;51.014;7.170;2022-10-22T12:17:02;2.80;;;1.13;;
5357;SDS011;2702;51.014;7.170;2022-10-22T12:19:47;2.30;;;1.07;;
5357;SDS011;2702;51.014;7.170;2022-10-22T12:22:31;4.40;;;1.83;;
5357;SDS011;2702;51.014;7.170;2022-10-22T12:25:04;3.03;;;1.20;;
5357;SDS011;2702;51.014;7.170;2022-10-22T12:27:40;2.23;;;1.10;;
5357;SDS011;2702;51.014;7.170;2022-10-22T12:30:15;1.70;;;1.03;;
5357;SDS011;2702;51.014;7.170;2022-10-22T12:32:56;7.60;;;1.70;;
5357;SDS011;2702;51.014;7.170;2022-10-22T12:35:25;3.77;;;2.70;;
5357;SDS011;2702;51.014;7.170;2022-10-22T12:37:54;1.60;;;0.97;;
5357;SDS011;2702;51.014;7.170;2022-10-22T12:40:29;2.90;;;1.40;;
5357;SDS011;2702;51.014;7.170;2022-10-22T12:42:59;2.20;;;1.47;;
5357;SDS011;2702;51.014;7.170;2022-10-22T12:45:30;2.97;;;1.57;;
5357;SDS011;2702;51.014;7.170;2022-10-22T12:47:59;1.90;;;1.00;;
5357;SDS011;2702;51.014;7.170;2022-10-22T12:50:31;3.70;;;1.00;;
5357;SDS011;2702;51.014;7.170;2022-10-22T12:55:44;3.37;;;1.47;;
5357;SDS011;2702;51.014;7.170;2022-10-22T12:58:18;2.53;;;1.07;;
5357;SDS011;2702;51.014;7.170;2022-10-22T13:00:46;1.90;;;1.07;;
5357;SDS011;2702;51.014;7.170;2022-10-22T13:03:22;2.90;;;1.20;;
5357;SDS011;2702;51.014;7.170;2022-10-22T13:11:46;4.13;;;1.30;;
5357;SDS011;2702;51.014;7.170;2022-10-22T13:14:28;2.53;;;1.00;;
5357;SDS011;2702;51.014;7.170;2022-10-22T13:17:10;2.50;;;1.00;;
5357;SDS011;2702;51.014;7.170;2022-10-22T13:24:55;4.53;;;1.07;;
5357;SDS011;2702;51.014;7.170;2022-10-22T13:27:23;2.90;;;1.37;;
5357;SDS011;2702;51.014;7.170;2022-10-22T13:29:53;3.07;;;1.10;;
5357;SDS011;2702;51.014;7.170;2022-10-22T13:32:30;2.93;;;1.23;;
5357;SDS011;2702;51.014;7.170;2022-10-22T13:35:01;2.80;;;1.20;;
5357;SDS011;2702;51.014;7.170;2022-10-22T13:37:29;3.57;;;1.10;;
5357;SDS011;2702;51.014;7.170;2022-10-22T13:39:57;3.50;;;1.10;;
5357;SDS011;2702;51.014;7.170;2022-10-22T13:42:23;1.50;;;0.60;;
5357;SDS011;2702;51.014;7.170;2022-10-22T13:44:49;2.07;;;0.80;;
5357;SDS011;2702;51.014;7.170;2022-10-22T13:49:50;3.73;;;0.90;;
5357;SDS011;2702;51.014;7.170;2022-10-22T13:52:18;2.17;;;1.07;;
5357;SDS011;2702;51.014;7.170;2022-10-22T13:54:52;5.40;;;1.00;;
5357;SDS011;2702;51.014;7.170;2022-10-22T13:57:18;9.23;;;8.33;;
5357;SDS011;2702;51.014;7.170;2022-10-22T13:59:44;5.80;;;3.70;;
5357;SDS011;2702;51.014;7.170;2022-10-22T14:02:10;3.07;;;1.60;;
5357;SDS011;2702;51.014;7.170;2022-10-22T14:04:38;2.07;;;1.23;;
5357;SDS011;2702;51.014;7.170;2022-10-22T14:07:23;2.87;;;1.47;;
5357;SDS011;2702;51.014;7.170;2022-10-22T14:09:49;1.90;;;1.00;;
5357;SDS011;2702;51.014;7.170;2022-10-22T14:12:15;3.60;;;1.37;;
5357;SDS011;2702;51.014;7.170;2022-10-22T14:14:41;3.17;;;1.17;;
5357;SDS011;2702;51.014;7.170;2022-10-22T14:17:09;2.50;;;1.40;;
5357;SDS011;2702;51.014;7.170;2022-10-22T14:19:41;5.50;;;1.40;;
5357;SDS011;2702;51.014;7.170;2022-10-22T14:22:16;4.80;;;1.33;;
5357;SDS011;2702;51.014;7.170;2022-10-22T14:24:44;2.07;;;1.20;;
5357;SDS011;2702;51.014;7.170;2022-10-22T14:27:11;3.03;;;1.93;;
5357;SDS011;2702;51.014;7.170;2022-10-22T14:29:38;5.03;;;1.20;;
5357;SDS011;2702;51.014;7.170;2022-10-22T14:32:08;4.10;;;1.20;;
5357;SDS011;2702;51.014;7.170;2022-10-22T14:34:40;4.13;;;1.40;;
5357;SDS011;2702;51.014;7.170;2022-10-22T14:37:14;2.07;;;1.17;;
5357;SDS011;2702;51.014;7.170;2022-10-22T14:39:43;1.20;;;1.00;;
5357;SDS011;2702;51.014;7.170;2022-10-22T14:42:11;2.77;;;1.90;;
5357;SDS011;2702;51.014;7.170;2022-10-22T14:44:39;7.27;;;6.57;;
5357;SDS011;2702;51.014;7.170;2022-10-22T14:47:05;9.10;;;8.23;;
5357;SDS011;2702;51.014;7.170;2022-10-22T14:49:31;1.57;;;1.37;;
5357;SDS011;2702;51.014;7.170;2022-10-22T14:51:56;3.50;;;1.30;;
5357;SDS011;2702;51.014;7.170;2022-10-22T14:54:22;3.17;;;1.37;;
5357;SDS011;2702;51.014;7.170;2022-10-22T14:56:48;3.33;;;1.17;;
5357;SDS011;2702;51.014;7.170;2022-10-22T14:59:14;4.10;;;2.93;;
5357;SDS011;2702;51.014;7.170;2022-10-22T15:01:40;4.57;;;4.10;;
5357;SDS011;2702;51.014;7.170;2022-10-22T15:04:07;4.00;;;1.73;;
5357;SDS011;2702;51.014;7.170;2022-10-22T15:06:33;3.20;;;1.67;;
5357;SDS011;2702;51.014;7.170;2022-10-22T15:09:00;2.70;;;1.17;;
5357;SDS011;2702;51.014;7.170;2022-10-22T15:11:25;4.23;;;1.50;;
5357;SDS011;2702;51.014;7.170;2022-10-22T15:13:51;3.07;;;1.50;;
5357;SDS011;2702;51.014;7.170;2022-10-22T15:16:17;3.13;;;1.40;;
5357;SDS011;2702;51.014;7.170;2022-10-22T15:18:43;2.23;;;1.30;;
5357;SDS011;2702;51.014;7.170;2022-10-22T15:21:16;3.67;;;1.37;;
5357;SDS011;2702;51.014;7.170;2022-10-22T15:23:44;2.03;;;1.30;;
5357;SDS011;2702;51.014;7.170;2022-10-22T15:26:11;4.07;;;0.97;;
5357;SDS011;2702;51.014;7.170;2022-10-22T15:28:38;2.27;;;0.97;;
5357;SDS011;2702;51.014;7.170;2022-10-22T15:31:06;4.73;;;1.23;;
5357;SDS011;2702;51.014;7.170;2022-10-22T15:33:32;2.00;;;0.80;;
5357;SDS011;2702;51.014;7.170;2022-10-22T15:36:07;0.87;;;0.70;;
5357;SDS011;2702;51.014;7.170;2022-10-22T15:38:38;2.97;;;1.20;;
5357;SDS011;2702;51.014;7.170;2022-10-22T15:41:04;5.70;;;1.20;;
5357;SDS011;2702;51.014;7.170;2022-10-22T15:43:32;3.67;;;1.20;;
5357;SDS011;2702;51.014;7.170;2022-10-22T15:46:14;4.33;;;1.13;;
5357;SDS011;2702;51.014;7.170;2022-10-22T15:48:43;1.80;;;1.00;;
5357;SDS011;2702;51.014;7.170;2022-10-22T15:51:10;2.33;;;1.17;;
5357;SDS011;2702;51.014;7.170;2022-10-22T15:53:40;1.90;;;1.50;;
5357;SDS011;2702;51.014;7.170;2022-10-22T15:56:06;2.67;;;1.30;;
5357;SDS011;2702;51.014;7.170;2022-10-22T15:58:33;3.20;;;1.30;;
5357;SDS011;2702;51.014;7.170;2022-10-22T16:01:02;2.10;;;1.37;;
5357;SDS011;2702;51.014;7.170;2022-10-22T16:03:33;3.17;;;1.60;;
5357;SDS011;2702;51.014;7.170;2022-10-22T16:05:59;2.27;;;1.13;;
5357;SDS011;2702;51.014;7.170;2022-10-22T16:08:26;2.00;;;1.40;;
5357;SDS011;2702;51.014;7.170;2022-10-22T16:10:52;2.37;;;0.93;;
5357;SDS011;2702;51.014;7.170;2022-10-22T16:13:18;2.60;;;1.20;;
5357;SDS011;2702;51.014;7.170;2022-10-22T16:15:47;2.20;;;1.00;;
5357;SDS011;2702;51.014;7.170;2022-10-22T16:18:14;4.37;;;1.30;;
5357;SDS011;2702;51.014;7.170;2022-10-22T16:20:40;2.30;;;1.37;;
5357;SDS011;2702;51.014;7.170;2022-10-22T16:23:06;2.53;;;1.20;;
5357;SDS011;2702;51.014;7.170;2022-10-22T16:25:39;2.10;;;1.23;;
5357;SDS011;2702;51.014;7.170;2022-10-22T16:28:06;2.50;;;1.00;;
5357;SDS011;2702;51.014;7.170;2022-10-22T16:30:36;2.90;;;1.73;;
5357;SDS011;2702;51.014;7.170;2022-10-22T16:33:03;2.20;;;1.37;;
5357;SDS011;2702;51.014;7.170;2022-10-22T16:35:31;5.13;;;1.60;;
5357;SDS011;2702;51.014;7.170;2022-10-22T16:37:57;2.87;;;1.80;;
5357;SDS011;2702;51.014;7.170;2022-10-22T16:40:23;2.87;;;1.67;;
5357;SDS011;2702;51.014;7.170;2022-10-22T16:42:49;2.10;;;1.43;;
5357;SDS011;2702;51.014;7.170;2022-10-22T16:45:15;1.87;;;1.40;;
5357;SDS011;2702;51.014;7.170;2022-10-22T16:47:41;2.73;;;1.60;;
5357;SDS011;2702;51.014;7.170;2022-10-22T16:50:10;4.40;;;1.60;;
5357;SDS011;2702;51.014;7.170;2022-10-22T16:52:35;3.00;;;1.57;;
5357;SDS011;2702;51.014;7.170;2022-10-22T16:55:01;4.30;;;1.60;;
5357;SDS011;2702;51.014;7.170;2022-10-22T16:57:27;4.50;;;1.53;;
5357;SDS011;2702;51.014;7.170;2022-10-22T16:59:53;5.27;;;1.77;;
5357;SDS011;2702;51.014;7.170;2022-10-22T17:02:19;4.50;;;1.60;;
5357;SDS011;2702;51.014;7.170;2022-10-22T17:04:45;4.27;;;1.90;;
5357;SDS011;2702;51.014;7.170;2022-10-22T17:07:11;3.50;;;1.47;;
5357;SDS011;2702;51.014;7.170;2022-10-22T17:09:37;4.73;;;1.87;;
5357;SDS011;2702;51.014;7.170;2022-10-22T17:12:03;3.50;;;1.67;;
5357;SDS011;2702;51.014;7.170;2022-10-22T17:14:29;4.30;;;1.70;;
5357;SDS011;2702;51.014;7.170;2022-10-22T17:16:55;5.40;;;1.90;;
5357;SDS011;2702;51.014;7.170;2022-10-22T17:19:21;3.17;;;1.80;;
5357;SDS011;2702;51.014;7.170;2022-10-22T17:21:48;4.53;;;2.10;;
5357;SDS011;2702;51.014;7.170;2022-10-22T17:24:15;3.63;;;2.27;;
5357;SDS011;2702;51.014;7.170;2022-10-22T17:26:42;3.03;;;1.70;;
5357;SDS011;2702;51.014;7.170;2022-10-22T17:29:09;6.13;;;2.50;;